createdAt,value
2023-10-25T00:01:37.704Z,147.75
2023-10-25T00:04:18.907Z,152.38
2023-10-25T00:06:54.962Z,160.35
2023-10-25T00:09:32.907Z,156.80
2023-10-25T00:12:07.236Z,156.80
2023-10-25T00:14:43.129Z,163.45
2023-10-25T00:17:15.409Z,152.77
2023-10-25T00:19:53.581Z,138.43
2023-10-25T00:22:29.288Z,134.95
2023-10-25T00:24:59.381Z,126.72
2023-10-25T00:27:31.483Z,141.38
2023-10-25T00:30:10.647Z,154.63
2023-10-25T00:32:48.829Z,149.98
2023-10-25T00:35:25.100Z,141.48
2023-10-25T00:38:03.844Z,151.25
2023-10-25T00:40:38.960Z,137.05
2023-10-25T00:43:24.394Z,127.20
2023-10-25T00:46:03.314Z,127.68
2023-10-25T00:48:43.413Z,125.93
2023-10-25T00:51:28.252Z,138.18
2023-10-25T00:54:09.901Z,139.30
2023-10-25T00:56:44.026Z,147.30
2023-10-25T00:59:28.349Z,151.40
2023-10-25T01:02:09.255Z,155.20
2023-10-25T01:04:46.187Z,151.93
2023-10-25T01:07:22.324Z,150.20
2023-10-25T01:09:55.951Z,150.55
2023-10-25T01:15:09.519Z,142.48
2023-10-25T01:17:48.021Z,159.98
2023-10-25T01:20:26.339Z,168.98
2023-10-25T01:23:04.470Z,163.07
2023-10-25T01:25:45.952Z,167.73
2023-10-25T01:28:24.205Z,173.45
2023-10-25T01:31:02.306Z,185.65
2023-10-25T01:33:38.079Z,177.63
2023-10-25T01:36:20.047Z,169.95
2023-10-25T01:38:58.152Z,166.27
2023-10-25T01:41:39.432Z,172.60
2023-10-25T01:44:17.665Z,175.07
2023-10-25T01:46:55.558Z,201.05
2023-10-25T01:49:31.429Z,200.77
2023-10-25T01:52:06.970Z,200.13
2023-10-25T01:54:41.734Z,205.10
2023-10-25T01:57:16.965Z,209.25
2023-10-25T01:59:52.264Z,213.52
2023-10-25T02:02:22.984Z,208.13
2023-10-25T02:05:02.697Z,194.00
2023-10-25T02:07:40.958Z,185.43
2023-10-25T02:10:24.841Z,188.57
2023-10-25T02:13:03.310Z,164.60
2023-10-25T02:15:41.152Z,156.25
2023-10-25T02:18:23.954Z,145.95
2023-10-25T02:20:56.952Z,130.98
2023-10-25T02:23:35.146Z,131.10
2023-10-25T02:26:07.533Z,123.50
2023-10-25T02:28:44.112Z,149.48
2023-10-25T02:31:17.363Z,142.38
2023-10-25T02:33:55.363Z,140.63
2023-10-25T02:36:34.471Z,135.32
2023-10-25T02:39:10.141Z,134.98
2023-10-25T02:41:45.474Z,136.95
2023-10-25T02:44:29.817Z,137.82
2023-10-25T02:47:12.918Z,142.52
2023-10-25T02:49:48.079Z,134.07
2023-10-25T02:52:18.014Z,137.25
2023-10-25T02:54:53.341Z,140.32
2023-10-25T02:57:28.864Z,140.38
2023-10-25T03:00:01.319Z,127.05
2023-10-25T03:02:40.190Z,131.45
2023-10-25T03:05:19.407Z,133.70
2023-10-25T03:07:54.713Z,129.05
2023-10-25T03:10:32.868Z,115.70
2023-10-25T03:13:13.660Z,115.93
2023-10-25T03:15:46.287Z,119.07
2023-10-25T03:18:21.497Z,111.63
2023-10-25T03:20:56.894Z,120.97
2023-10-25T03:23:34.739Z,115.25
2023-10-25T03:26:18.621Z,120.55
2023-10-25T03:28:59.822Z,111.43
2023-10-25T03:31:46.128Z,110.80
2023-10-25T03:34:24.463Z,105.68
2023-10-25T03:36:59.742Z,108.93
2023-10-25T03:39:35.466Z,122.85
2023-10-25T03:42:11.606Z,124.20
2023-10-25T03:44:52.334Z,118.90
2023-10-25T03:47:30.965Z,105.68
2023-10-25T03:50:12.443Z,119.20
2023-10-25T03:52:58.764Z,108.50
2023-10-25T03:55:39.498Z,115.43
2023-10-25T03:58:11.644Z,95.35
2023-10-25T04:00:46.793Z,78.75
2023-10-25T04:03:19.118Z,64.10
2023-10-25T04:06:12.792Z,54.83
2023-10-25T04:08:48.552Z,42.58
2023-10-25T04:11:26.772Z,46.42
2023-10-25T04:14:12.090Z,51.88
2023-10-25T04:16:44.889Z,57.28
2023-10-25T04:19:23.565Z,48.97
2023-10-25T04:22:00.023Z,61.08
2023-10-25T04:24:39.264Z,58.75
2023-10-25T04:27:14.465Z,57.33
2023-10-25T04:29:46.446Z,64.18
2023-10-25T04:32:20.079Z,68.60
2023-10-25T04:34:55.243Z,71.18
2023-10-25T04:37:34.689Z,69.60
2023-10-25T04:40:09.897Z,68.18
2023-10-25T04:42:48.135Z,66.82
2023-10-25T04:45:34.502Z,75.90
2023-10-25T04:48:06.803Z,68.53
2023-10-25T04:50:45.065Z,84.97
2023-10-25T04:53:23.281Z,93.40
2023-10-25T04:56:00.989Z,93.38
2023-10-25T04:58:46.760Z,93.95
2023-10-25T05:01:25.536Z,91.22
2023-10-25T05:04:01.984Z,100.88
2023-10-25T05:06:35.225Z,102.40
2023-10-25T05:09:11.180Z,111.72
2023-10-25T05:11:49.858Z,122.00
2023-10-25T05:14:25.173Z,111.63
2023-10-25T05:17:03.461Z,117.65
2023-10-25T05:19:42.430Z,116.13
2023-10-25T05:22:20.854Z,111.18
2023-10-25T05:24:56.155Z,116.03
2023-10-25T05:27:28.919Z,119.57
2023-10-25T05:30:08.719Z,109.60
2023-10-25T05:32:47.244Z,109.40
2023-10-25T05:35:31.681Z,98.43
2023-10-25T05:38:10.012Z,107.50
2023-10-25T05:40:54.830Z,98.88
2023-10-25T05:43:34.707Z,110.97
2023-10-25T05:46:18.340Z,116.25
2023-10-25T05:48:57.099Z,106.80
2023-10-25T05:51:32.244Z,113.20
2023-10-25T05:54:07.541Z,116.95
2023-10-25T05:56:43.264Z,112.43
2023-10-25T05:59:18.918Z,108.13
2023-10-25T06:02:02.312Z,120.00
2023-10-25T06:04:40.419Z,107.13
2023-10-25T06:07:21.961Z,107.85
2023-10-25T06:09:59.749Z,102.13
2023-10-25T06:12:34.975Z,93.95
2023-10-25T06:15:19.405Z,95.40
2023-10-25T06:17:57.165Z,94.70
2023-10-25T06:20:29.254Z,95.57
2023-10-25T06:23:04.930Z,97.55
2023-10-25T06:25:39.486Z,89.03
2023-10-25T06:28:14.143Z,93.38
2023-10-25T06:30:51.851Z,94.97
2023-10-25T06:33:30.493Z,95.15
2023-10-25T06:36:08.748Z,92.38
2023-10-25T06:38:41.994Z,83.43
2023-10-25T06:41:23.594Z,86.40
2023-10-25T06:44:01.876Z,89.45
2023-10-25T06:46:37.095Z,96.78
2023-10-25T06:49:12.904Z,98.43
2023-10-25T06:51:45.944Z,88.22
2023-10-25T06:54:21.167Z,77.22
2023-10-25T06:56:59.298Z,77.75
2023-10-25T06:59:34.514Z,73.22
2023-10-25T07:02:43.625Z,66.40
2023-10-25T07:05:28.613Z,65.03
2023-10-25T07:08:02.598Z,70.57
2023-10-25T07:10:38.205Z,58.97
2023-10-25T07:13:11.523Z,60.30
2023-10-25T07:15:49.989Z,64.95
2023-10-25T07:18:25.215Z,59.55
2023-10-25T07:21:00.510Z,53.25
2023-10-25T07:23:35.902Z,48.30
2023-10-25T07:26:06.632Z,52.88
2023-10-25T07:28:38.996Z,42.38
2023-10-25T07:31:11.818Z,40.28
2023-10-25T07:33:44.859Z,37.13
2023-10-25T07:36:28.708Z,37.42
2023-10-25T07:39:01.372Z,45.13
2023-10-25T07:41:40.073Z,30.55
2023-10-25T07:44:18.965Z,24.77
2023-10-25T07:46:53.636Z,23.48
2023-10-25T07:49:29.532Z,26.67
2023-10-25T07:52:04.844Z,31.67
2023-10-25T07:54:45.376Z,28.70
2023-10-25T07:58:04.006Z,24.75
2023-10-25T08:00:13.929Z,31.85
2023-10-25T08:02:49.152Z,33.35
2023-10-25T08:05:24.093Z,27.98
2023-10-25T08:08:02.354Z,46.30
2023-10-25T08:10:38.082Z,31.98
2023-10-25T08:13:18.102Z,26.85
2023-10-25T08:15:50.126Z,24.13
2023-10-25T08:18:25.797Z,25.38
2023-10-25T08:21:02.112Z,21.23
2023-10-25T08:23:38.733Z,18.15
2023-10-25T08:26:16.200Z,19.90
2023-10-25T08:28:51.460Z,17.90
2023-10-25T08:31:26.491Z,16.05
2023-10-25T08:34:04.164Z,17.30
2023-10-25T08:36:39.354Z,18.77
2023-10-25T08:39:10.344Z,18.17
2023-10-25T08:41:49.617Z,19.02
2023-10-25T08:44:21.038Z,14.98
2023-10-25T08:47:00.988Z,16.00
2023-10-25T08:49:36.878Z,13.07
2023-10-25T08:52:12.223Z,15.63
2023-10-25T08:54:44.925Z,19.10
2023-10-25T08:57:34.004Z,19.97
2023-10-25T09:00:13.303Z,14.63
2023-10-25T09:02:55.273Z,11.15
2023-10-25T09:05:39.715Z,12.07
2023-10-25T09:08:16.665Z,12.05
2023-10-25T09:11:06.085Z,12.05
2023-10-25T09:13:57.938Z,13.50
2023-10-25T09:16:31.965Z,11.15
2023-10-25T09:19:10.915Z,9.73
2023-10-25T09:21:48.631Z,10.20
2023-10-25T09:24:25.915Z,8.40
2023-10-25T09:27:07.404Z,8.98
2023-10-25T09:29:45.654Z,9.93
2023-10-25T09:32:16.182Z,7.97
2023-10-25T09:34:55.044Z,9.27
2023-10-25T09:37:35.006Z,7.88
2023-10-25T09:40:11.112Z,7.45
2023-10-25T09:42:49.290Z,7.43
2023-10-25T09:45:32.924Z,11.68
2023-10-25T09:48:09.300Z,8.75
2023-10-25T09:51:06.089Z,10.30
2023-10-25T09:53:45.157Z,12.13
2023-10-25T09:56:19.885Z,8.57
2023-10-25T09:58:55.735Z,6.63
2023-10-25T10:01:31.095Z,6.65
2023-10-25T10:04:46.538Z,8.82
2023-10-25T10:07:28.387Z,6.88
2023-10-25T10:10:20.532Z,5.68
2023-10-25T10:12:57.983Z,7.55
2023-10-25T10:16:03.525Z,6.18
2023-10-25T10:18:38.909Z,6.53
2023-10-25T10:21:13.158Z,5.25
2023-10-25T10:23:57.729Z,6.65
2023-10-25T10:26:54.813Z,5.50
2023-10-25T10:29:34.773Z,5.88
2023-10-25T10:32:09.566Z,5.03
2023-10-25T10:34:52.359Z,5.18
2023-10-25T10:37:35.202Z,4.55
2023-10-25T10:40:10.867Z,5.00
2023-10-25T10:42:49.603Z,6.65
2023-10-25T10:45:33.079Z,6.70
2023-10-25T10:48:22.735Z,4.68
2023-10-25T10:50:59.103Z,4.72
2023-10-25T10:53:32.189Z,3.65
2023-10-25T10:56:07.873Z,3.70
2023-10-25T10:58:43.329Z,3.42
2023-10-25T11:01:13.572Z,5.13
2023-10-25T11:03:47.426Z,3.42
2023-10-25T11:06:22.590Z,3.30
2023-10-25T11:09:00.166Z,3.67
2023-10-25T11:11:34.483Z,3.95
2023-10-25T11:14:06.846Z,3.90
2023-10-25T11:16:39.234Z,3.88
2023-10-25T11:19:08.532Z,3.20
2023-10-25T11:21:38.952Z,3.72
2023-10-25T11:24:22.218Z,3.85
2023-10-25T11:27:00.390Z,5.70
2023-10-25T11:29:42.146Z,3.58
2023-10-25T11:32:16.581Z,3.33
2023-10-25T11:34:55.824Z,3.45
2023-10-25T11:37:45.063Z,3.40
2023-10-25T11:40:24.148Z,2.92
2023-10-25T11:43:01.115Z,3.00
2023-10-25T11:45:36.428Z,3.35
2023-10-25T11:48:09.917Z,4.63
2023-10-25T11:50:55.884Z,3.15
2023-10-25T11:53:32.961Z,3.03
2023-10-25T11:56:09.198Z,3.90
2023-10-25T11:58:47.513Z,2.65
2023-10-25T12:01:20.255Z,3.08
2023-10-25T12:03:52.790Z,3.00
2023-10-25T12:06:25.595Z,2.53
2023-10-25T12:09:03.615Z,2.97
2023-10-25T12:11:48.533Z,5.85
2023-10-25T12:14:31.868Z,3.45
2023-10-25T12:17:08.489Z,2.95
2023-10-25T12:19:54.344Z,3.40
2023-10-25T12:22:45.578Z,2.88
2023-10-25T12:25:20.943Z,2.88
2023-10-25T12:28:05.096Z,3.60
2023-10-25T12:30:36.630Z,4.05
2023-10-25T12:33:09.999Z,2.83
2023-10-25T12:35:43.908Z,4.20
2023-10-25T12:38:19.322Z,2.70
2023-10-25T12:40:57.748Z,4.80
2023-10-25T12:43:32.397Z,2.22
2023-10-25T12:46:01.803Z,2.40
2023-10-25T12:48:42.843Z,2.20
2023-10-25T12:51:17.896Z,2.38
2023-10-25T12:53:53.159Z,3.00
2023-10-25T12:56:28.949Z,3.13
2023-10-25T12:59:10.260Z,2.72
2023-10-25T13:01:53.427Z,2.70
2023-10-25T13:04:26.754Z,2.22
2023-10-25T13:07:05.572Z,3.97
2023-10-25T13:09:42.060Z,2.40
2023-10-25T13:12:12.067Z,1.85
2023-10-25T13:14:53.795Z,2.10
2023-10-25T13:19:57.691Z,2.75
2023-10-25T13:22:27.826Z,4.28
2023-10-25T13:25:00.861Z,4.07
2023-10-25T13:27:33.688Z,5.32
2023-10-25T13:30:12.943Z,1.70
2023-10-25T13:32:43.051Z,2.13
2023-10-25T13:35:16.417Z,2.28
2023-10-25T13:37:46.254Z,2.20
2023-10-25T13:40:16.382Z,2.33
2023-10-25T13:42:51.854Z,1.58
2023-10-25T13:45:37.408Z,4.38
2023-10-25T13:48:11.219Z,3.15
2023-10-25T13:50:41.148Z,2.50
2023-10-25T13:53:13.270Z,1.92
2023-10-25T13:55:57.046Z,2.88
2023-10-25T13:58:34.095Z,2.00
2023-10-25T14:01:11.681Z,3.30
2023-10-25T14:03:41.963Z,1.60
2023-10-25T14:06:17.265Z,1.90
2023-10-25T14:09:01.893Z,2.47
2023-10-25T14:11:35.112Z,3.33
2023-10-25T14:14:13.668Z,2.10
2023-10-25T14:16:47.433Z,1.70
2023-10-25T14:19:21.939Z,2.00
2023-10-25T14:22:02.775Z,2.63
2023-10-25T14:24:38.943Z,2.03
2023-10-25T14:27:15.167Z,2.65
2023-10-25T14:29:45.275Z,4.13
2023-10-25T14:32:20.708Z,1.92
2023-10-25T14:34:54.457Z,3.30
2023-10-25T14:37:31.641Z,2.25
2023-10-25T14:40:11.297Z,2.28
2023-10-25T14:42:46.704Z,2.10
2023-10-25T14:45:17.916Z,1.97
2023-10-25T14:47:51.931Z,1.95
2023-10-25T14:50:22.277Z,2.33
2023-10-25T14:52:55.191Z,2.30
2023-10-25T14:55:45.449Z,4.05
2023-10-25T14:58:17.738Z,3.00
2023-10-25T15:00:44.872Z,2.22
2023-10-25T15:03:17.241Z,5.30
2023-10-25T15:06:00.107Z,2.55
2023-10-25T15:08:33.048Z,2.50
2023-10-25T15:11:08.860Z,2.28
2023-10-25T15:13:44.884Z,3.67
2023-10-25T15:16:22.642Z,2.80
2023-10-25T15:18:52.812Z,2.60
2023-10-25T15:21:30.690Z,2.97
2023-10-25T15:24:01.136Z,3.20
2023-10-25T15:26:34.348Z,3.13
2023-10-25T15:29:09.880Z,3.60
2023-10-25T15:31:42.432Z,3.30
2023-10-25T15:34:15.250Z,5.78
2023-10-25T15:36:49.991Z,4.55
2023-10-25T15:39:22.444Z,8.32
2023-10-25T15:41:54.675Z,5.50
2023-10-25T15:44:31.945Z,5.75
2023-10-25T15:47:01.585Z,5.78
2023-10-25T15:49:39.228Z,5.38
2023-10-25T15:52:17.360Z,5.07
2023-10-25T15:54:56.319Z,5.55
2023-10-25T15:57:30.939Z,6.53
2023-10-25T16:00:02.578Z,5.95
2023-10-25T16:02:42.864Z,6.82
2023-10-25T16:05:13.167Z,10.18
2023-10-25T16:07:48.622Z,6.57
2023-10-25T16:10:26.352Z,6.85
2023-10-25T16:13:01.854Z,6.78
2023-10-25T16:15:31.576Z,7.32
2023-10-25T16:18:06.884Z,9.68
2023-10-25T16:20:42.190Z,7.43
2023-10-25T16:23:14.958Z,7.60
2023-10-25T16:25:51.080Z,8.93
2023-10-25T16:28:28.808Z,10.07
2023-10-25T16:30:58.916Z,10.65
2023-10-25T16:33:32.164Z,10.68
2023-10-25T16:36:15.265Z,13.23
2023-10-25T16:38:47.593Z,21.55
2023-10-25T16:41:18.999Z,15.00
2023-10-25T16:43:51.742Z,13.07
2023-10-25T16:46:29.917Z,13.53
2023-10-25T16:49:05.864Z,14.10
2023-10-25T16:51:43.660Z,13.15
2023-10-25T16:54:19.650Z,19.23
2023-10-25T16:56:49.797Z,17.65
2023-10-25T16:59:22.581Z,20.63
2023-10-25T17:01:55.050Z,20.67
2023-10-25T17:04:27.622Z,18.92
2023-10-25T17:06:59.952Z,19.42
2023-10-25T17:09:35.095Z,21.83
2023-10-25T17:12:07.096Z,22.63
2023-10-25T17:14:41.312Z,21.90
2023-10-25T17:17:18.613Z,26.63
2023-10-25T17:19:54.952Z,25.92
2023-10-25T17:22:31.941Z,31.15
2023-10-25T17:25:07.414Z,27.73
2023-10-25T17:27:44.574Z,24.00
2023-10-25T17:30:20.247Z,23.15
2023-10-25T17:32:53.894Z,27.85
2023-10-25T17:38:03.636Z,27.80
2023-10-25T17:40:35.303Z,28.50
2023-10-25T17:43:16.618Z,30.52
2023-10-25T17:48:39.177Z,29.75
2023-10-25T17:51:19.678Z,32.35
2023-10-25T17:53:54.140Z,31.13
2023-10-25T17:56:30.966Z,27.85
2023-10-25T17:59:08.643Z,27.95
2023-10-25T18:01:42.373Z,32.70
2023-10-25T18:04:20.203Z,28.05
2023-10-25T18:07:08.275Z,36.22
2023-10-25T18:09:40.393Z,25.73
2023-10-25T18:12:16.259Z,26.60
2023-10-25T18:14:52.960Z,25.20
2023-10-25T18:17:23.117Z,28.10
2023-10-25T18:19:55.985Z,30.90
2023-10-25T18:22:26.430Z,29.05
2023-10-25T18:25:01.705Z,31.00
2023-10-25T18:27:40.741Z,34.85
2023-10-25T18:30:27.589Z,31.80
2023-10-25T18:33:10.722Z,35.60
2023-10-25T18:35:48.065Z,40.30
2023-10-25T18:38:19.161Z,49.95
2023-10-25T18:40:58.613Z,48.03
2023-10-25T18:43:28.778Z,54.35
2023-10-25T18:46:06.208Z,52.50
2023-10-25T18:48:41.701Z,53.22
2023-10-25T18:51:21.407Z,53.35
2023-10-25T18:53:54.618Z,55.35
2023-10-25T18:56:30.730Z,46.67
2023-10-25T18:59:09.050Z,44.92
2023-10-25T19:01:46.889Z,43.25
2023-10-25T19:04:17.221Z,44.25
2023-10-25T19:06:51.201Z,44.70
2023-10-25T19:09:28.568Z,41.00
2023-10-25T19:12:09.310Z,42.17
2023-10-25T19:14:41.569Z,41.10
2023-10-25T19:17:22.949Z,34.40
2023-10-25T19:20:08.250Z,31.65
2023-10-25T19:22:47.972Z,25.33
2023-10-25T19:25:21.333Z,27.27
2023-10-25T19:27:54.039Z,25.30
2023-10-25T19:30:27.217Z,23.83
2023-10-25T19:33:02.535Z,24.42
2023-10-25T19:35:35.573Z,22.92
2023-10-25T19:38:11.451Z,21.88
2023-10-25T19:40:43.892Z,21.15
2023-10-25T19:43:16.483Z,21.95
2023-10-25T19:45:55.165Z,23.60
2023-10-25T19:48:25.317Z,23.73
2023-10-25T19:50:58.562Z,25.17
2023-10-25T19:53:31.149Z,28.40
2023-10-25T19:56:06.519Z,29.37
2023-10-25T19:58:36.675Z,28.37
2023-10-25T20:01:12.184Z,30.63
2023-10-25T20:03:56.526Z,29.33
2023-10-25T20:06:26.903Z,29.30
2023-10-25T20:08:59.276Z,31.77
2023-10-25T20:11:30.630Z,29.40
2023-10-25T20:14:04.069Z,26.85
2023-10-25T20:16:34.153Z,27.77
2023-10-25T20:19:09.910Z,32.03
2023-10-25T20:21:45.258Z,35.83
2023-10-25T20:24:22.894Z,38.28
2023-10-25T20:26:53.053Z,43.60
2023-10-25T20:29:28.576Z,38.85
2023-10-25T20:32:03.832Z,43.88
2023-10-25T20:34:42.507Z,41.20
2023-10-25T20:37:25.187Z,46.92
2023-10-25T20:40:00.384Z,43.60
2023-10-25T20:42:35.030Z,45.15
2023-10-25T20:45:04.999Z,48.65
2023-10-25T20:47:40.307Z,53.42
2023-10-25T20:50:15.598Z,53.28
2023-10-25T20:52:57.514Z,48.42
2023-10-25T20:55:30.455Z,43.33
2023-10-25T20:58:06.785Z,46.38
2023-10-25T21:00:42.190Z,38.47
2023-10-25T21:03:17.024Z,45.33
2023-10-25T21:05:47.182Z,51.33
2023-10-25T21:08:17.275Z,50.80
2023-10-25T21:10:52.046Z,47.58
2023-10-25T21:13:23.752Z,46.63
2023-10-25T21:15:59.260Z,55.53
2023-10-25T21:18:31.623Z,58.35
2023-10-25T21:21:05.191Z,61.10
2023-10-25T21:23:46.496Z,56.65
2023-10-25T21:26:24.890Z,52.25
2023-10-25T21:28:59.221Z,47.25
2023-10-25T21:31:36.609Z,40.20
2023-10-25T21:34:10.891Z,36.15
2023-10-25T21:36:45.946Z,36.58
2023-10-25T21:39:20.645Z,39.60
2023-10-25T21:41:53.578Z,36.85
2023-10-25T21:44:28.409Z,43.22
2023-10-25T21:47:09.143Z,43.03
2023-10-25T21:49:39.664Z,39.30
2023-10-25T21:52:10.490Z,43.53
2023-10-25T21:54:43.497Z,40.53
2023-10-25T21:57:13.793Z,50.58
2023-10-25T21:59:55.409Z,59.08
2023-10-25T22:02:30.193Z,78.78
2023-10-25T22:05:05.770Z,88.05
2023-10-25T22:07:39.019Z,85.55
2023-10-25T22:10:12.912Z,71.20
2023-10-25T22:15:21.061Z,51.60
2023-10-25T22:17:53.446Z,56.20
2023-10-25T22:20:26.644Z,50.42
2023-10-25T22:23:01.839Z,51.33
2023-10-25T22:25:40.721Z,55.55
2023-10-25T22:28:13.454Z,45.45
2023-10-25T22:30:45.630Z,43.00
2023-10-25T22:33:23.568Z,42.58
2023-10-25T22:36:01.384Z,48.95
2023-10-25T22:38:31.836Z,54.92
2023-10-25T22:41:16.620Z,64.80
2023-10-25T22:43:55.828Z,82.50
2023-10-25T22:46:30.201Z,96.80
2023-10-25T22:49:03.332Z,104.25
2023-10-25T22:51:36.422Z,123.65
2023-10-25T22:54:11.944Z,141.95
2023-10-25T22:56:46.921Z,126.13
2023-10-25T22:59:20.130Z,124.32
2023-10-25T23:01:52.364Z,114.63
2023-10-25T23:04:29.733Z,97.00
2023-10-25T23:07:02.238Z,90.57
2023-10-25T23:09:39.870Z,87.78
2023-10-25T23:12:14.160Z,80.78
2023-10-25T23:17:20.536Z,58.40
2023-10-25T23:19:58.774Z,64.15
2023-10-25T23:22:31.884Z,62.28
2023-10-25T23:25:01.930Z,59.47
2023-10-25T23:27:34.439Z,52.80
2023-10-25T23:30:10.695Z,53.47
2023-10-25T23:32:43.149Z,55.92
2023-10-25T23:35:21.270Z,56.90
2023-10-25T23:37:51.314Z,65.15
2023-10-25T23:40:21.612Z,73.20
2023-10-25T23:42:57.342Z,72.82
2023-10-25T23:45:31.873Z,82.13
2023-10-25T23:48:01.556Z,82.60
2023-10-25T23:50:37.690Z,79.35
2023-10-25T23:53:13.053Z,86.00
2023-10-25T23:55:51.207Z,88.72
2023-10-25T23:58:24.273Z,92.35
